createdAt,value
2023-01-19T00:01:29.853Z,6.23
2023-01-19T00:03:58.017Z,5.97
2023-01-19T00:06:25.891Z,5.90
2023-01-19T00:08:53.771Z,6.20
2023-01-19T00:11:21.559Z,6.00
2023-01-19T00:13:50.931Z,6.00
2023-01-19T00:16:21.702Z,6.27
2023-01-19T00:18:52.099Z,6.13
2023-01-19T00:21:21.605Z,6.03
2023-01-19T00:23:52.470Z,5.90
2023-01-19T00:26:22.404Z,5.80
2023-01-19T00:28:50.975Z,5.33
2023-01-19T00:31:20.553Z,5.90
2023-01-19T00:33:51.567Z,5.77
2023-01-19T00:36:20.276Z,5.80
2023-01-19T00:38:48.098Z,5.70
2023-01-19T00:41:15.941Z,5.73
2023-01-19T00:43:42.840Z,5.83
2023-01-19T00:46:10.905Z,5.37
2023-01-19T00:48:38.787Z,5.63
2023-01-19T00:51:07.979Z,6.63
2023-01-19T00:53:35.786Z,6.23
2023-01-19T00:56:03.526Z,6.73
2023-01-19T00:58:31.406Z,6.50
2023-01-19T01:01:03.800Z,6.30
2023-01-19T01:03:32.024Z,6.60
2023-01-19T01:05:59.862Z,6.23
2023-01-19T01:08:28.990Z,6.47
2023-01-19T01:10:56.909Z,6.70
2023-01-19T01:13:27.276Z,6.83
2023-01-19T01:15:57.694Z,7.30
2023-01-19T01:18:26.251Z,7.37
2023-01-19T01:20:56.204Z,8.03
2023-01-19T01:23:24.230Z,7.13
2023-01-19T01:25:53.482Z,7.40
2023-01-19T01:28:21.262Z,6.77
2023-01-19T01:30:49.240Z,6.80
2023-01-19T01:33:40.822Z,6.90
2023-01-19T01:36:05.492Z,7.10
2023-01-19T01:38:33.394Z,7.13
2023-01-19T01:41:02.801Z,7.40
2023-01-19T01:43:44.941Z,7.90
2023-01-19T01:46:15.476Z,7.30
2023-01-19T01:48:48.289Z,8.00
2023-01-19T01:51:27.822Z,8.00
2023-01-19T01:54:12.603Z,7.67
2023-01-19T01:56:44.165Z,8.07
2023-01-19T01:59:18.110Z,7.77
2023-01-19T02:02:03.618Z,8.10
2023-01-19T02:04:32.688Z,7.73
2023-01-19T02:07:18.135Z,7.20
2023-01-19T02:10:03.510Z,7.50
2023-01-19T02:12:51.094Z,7.67
2023-01-19T02:15:20.250Z,7.70
2023-01-19T02:17:49.002Z,7.63
2023-01-19T02:20:17.953Z,7.80
2023-01-19T02:22:49.774Z,7.70
2023-01-19T02:25:20.717Z,7.40
2023-01-19T02:27:50.197Z,7.67
2023-01-19T02:30:19.051Z,7.63
2023-01-19T02:32:47.060Z,7.87
2023-01-19T02:35:15.021Z,7.40
2023-01-19T02:37:44.964Z,7.87
2023-01-19T02:40:15.976Z,8.10
2023-01-19T02:42:49.572Z,8.63
2023-01-19T02:45:21.108Z,8.77
2023-01-19T02:47:51.740Z,9.10
2023-01-19T02:50:43.558Z,9.60
2023-01-19T02:53:31.805Z,9.23
2023-01-19T02:56:06.528Z,8.67
2023-01-19T02:58:42.116Z,9.40
2023-01-19T03:01:20.666Z,9.70
2023-01-19T03:03:55.756Z,9.50
2023-01-19T03:06:33.603Z,8.87
2023-01-19T03:09:10.330Z,9.10
2023-01-19T03:11:42.912Z,9.10
2023-01-19T03:14:15.669Z,9.33
2023-01-19T03:16:48.493Z,8.87
2023-01-19T03:19:21.428Z,8.93
2023-01-19T03:21:53.395Z,10.10
2023-01-19T03:24:25.382Z,9.50
2023-01-19T03:26:58.893Z,9.37
2023-01-19T03:29:31.363Z,10.17
2023-01-19T03:32:02.737Z,9.70
2023-01-19T03:34:30.829Z,10.27
2023-01-19T03:37:04.092Z,9.90
2023-01-19T03:39:32.575Z,9.70
2023-01-19T03:42:05.798Z,9.63
2023-01-19T03:44:38.792Z,10.37
2023-01-19T03:47:08.771Z,10.10
2023-01-19T03:49:38.854Z,9.37
2023-01-19T03:52:07.003Z,10.70
2023-01-19T03:54:34.774Z,10.07
2023-01-19T03:57:02.959Z,9.40
2023-01-19T03:59:30.787Z,10.57
2023-01-19T04:02:00.485Z,10.17
2023-01-19T04:04:28.310Z,10.13
2023-01-19T04:06:56.078Z,10.70
2023-01-19T04:09:24.821Z,9.80
2023-01-19T04:11:52.743Z,10.67
2023-01-19T04:14:20.701Z,10.53
2023-01-19T04:16:48.489Z,11.33
2023-01-19T04:19:17.661Z,10.17
2023-01-19T04:21:45.403Z,10.73
2023-01-19T04:24:13.481Z,10.63
2023-01-19T04:26:41.218Z,9.63
2023-01-19T04:29:08.947Z,9.83
2023-01-19T04:31:36.998Z,8.83
2023-01-19T04:34:04.973Z,10.73
2023-01-19T04:36:34.040Z,9.50
2023-01-19T04:39:01.803Z,9.53
2023-01-19T04:41:31.096Z,9.57
2023-01-19T04:43:58.915Z,9.27
2023-01-19T04:46:26.794Z,10.27
2023-01-19T04:48:54.678Z,9.83
2023-01-19T04:51:22.445Z,9.80
2023-01-19T04:53:51.593Z,11.33
2023-01-19T04:56:19.393Z,12.17
2023-01-19T04:58:47.275Z,13.10
2023-01-19T05:01:15.223Z,12.73
2023-01-19T05:03:42.976Z,13.57
2023-01-19T05:06:10.735Z,12.67
2023-01-19T05:08:38.542Z,13.97
2023-01-19T05:11:07.847Z,13.83
2023-01-19T05:13:35.681Z,13.13
2023-01-19T05:16:03.792Z,12.07
2023-01-19T05:18:35.956Z,12.33
2023-01-19T05:21:03.856Z,11.43
2023-01-19T05:23:32.735Z,12.23
2023-01-19T05:26:02.019Z,11.20
2023-01-19T05:28:33.138Z,11.53
2023-01-19T05:31:01.084Z,10.63
2023-01-19T05:33:28.934Z,10.20
2023-01-19T05:35:56.786Z,11.17
2023-01-19T05:38:34.521Z,10.47
2023-01-19T05:41:03.388Z,11.30
2023-01-19T05:43:32.590Z,11.63
2023-01-19T05:46:00.431Z,11.37
2023-01-19T05:48:28.328Z,10.97
2023-01-19T05:50:59.602Z,11.67
2023-01-19T05:53:27.406Z,10.93
2023-01-19T05:55:55.204Z,10.37
2023-01-19T05:58:22.937Z,11.73
2023-01-19T06:00:52.085Z,10.90
2023-01-19T06:03:19.955Z,10.67
2023-01-19T06:05:47.751Z,11.73
2023-01-19T06:08:15.512Z,11.07
2023-01-19T06:10:43.212Z,11.13
2023-01-19T06:13:11.201Z,11.53
2023-01-19T06:15:38.946Z,11.63
2023-01-19T06:18:08.198Z,11.20
2023-01-19T06:20:36.487Z,10.70
2023-01-19T06:23:04.769Z,11.10
2023-01-19T06:25:32.589Z,10.10
2023-01-19T06:28:00.412Z,10.40
2023-01-19T06:30:29.043Z,10.63
2023-01-19T06:32:57.027Z,10.77
2023-01-19T06:35:26.114Z,10.33
2023-01-19T06:37:53.887Z,10.97
2023-01-19T06:40:21.639Z,10.40
2023-01-19T06:42:50.194Z,10.33
2023-01-19T06:45:18.055Z,12.07
2023-01-19T06:47:48.888Z,12.47
2023-01-19T06:50:17.375Z,13.47
2023-01-19T06:52:46.475Z,13.10
2023-01-19T06:55:14.549Z,13.20
2023-01-19T06:57:42.332Z,12.87
2023-01-19T07:00:12.394Z,13.27
2023-01-19T07:02:43.607Z,12.80
2023-01-19T07:05:14.336Z,14.30
2023-01-19T07:07:43.243Z,14.20
2023-01-19T07:10:15.637Z,13.73
2023-01-19T07:12:45.062Z,13.80
2023-01-19T07:15:12.874Z,12.50
2023-01-19T07:17:41.627Z,12.17
2023-01-19T07:20:11.220Z,11.70
2023-01-19T07:22:38.949Z,12.90
2023-01-19T07:25:07.200Z,13.03
2023-01-19T07:27:36.417Z,12.40
2023-01-19T07:30:04.542Z,13.20
2023-01-19T07:32:32.415Z,12.73
2023-01-19T07:35:00.227Z,12.63
2023-01-19T07:37:27.932Z,13.03
2023-01-19T07:39:55.831Z,12.70
2023-01-19T07:42:23.583Z,12.63
2023-01-19T07:44:52.671Z,11.93
2023-01-19T07:47:20.398Z,11.83
2023-01-19T07:49:48.201Z,12.23
2023-01-19T07:52:16.019Z,11.90
2023-01-19T07:54:43.724Z,11.73
2023-01-19T07:57:11.441Z,11.60
2023-01-19T07:59:39.892Z,10.87
2023-01-19T08:02:11.208Z,11.27
2023-01-19T08:04:39.054Z,12.53
2023-01-19T08:07:06.821Z,12.53
2023-01-19T08:09:34.679Z,11.13
2023-01-19T08:12:02.649Z,11.23
2023-01-19T08:14:30.859Z,10.27
2023-01-19T08:17:00.524Z,10.57
2023-01-19T08:19:30.476Z,10.60
2023-01-19T08:21:59.078Z,10.73
2023-01-19T08:24:29.135Z,10.60
2023-01-19T08:27:00.939Z,11.17
2023-01-19T08:29:30.730Z,10.97
2023-01-19T08:32:00.176Z,10.57
2023-01-19T08:34:30.959Z,10.80
2023-01-19T08:36:59.373Z,10.13
2023-01-19T08:39:27.505Z,9.53
2023-01-19T08:41:55.301Z,9.10
2023-01-19T08:44:23.261Z,8.83
2023-01-19T08:46:51.006Z,8.33
2023-01-19T08:49:18.750Z,9.13
2023-01-19T08:51:49.018Z,9.60
2023-01-19T08:54:18.542Z,8.97
2023-01-19T08:56:46.491Z,9.87
2023-01-19T08:59:14.343Z,10.03
2023-01-19T09:01:42.471Z,11.07
2023-01-19T09:04:10.402Z,11.30
2023-01-19T09:06:38.260Z,10.17
2023-01-19T09:09:07.364Z,10.83
2023-01-19T09:11:35.254Z,10.07
2023-01-19T09:14:05.702Z,10.03
2023-01-19T09:16:33.478Z,10.50
2023-01-19T09:19:01.439Z,10.00
2023-01-19T09:21:29.502Z,10.43
2023-01-19T09:23:57.770Z,11.50
2023-01-19T09:26:27.129Z,11.47
2023-01-19T09:28:54.874Z,11.60
2023-01-19T09:31:22.708Z,11.10
2023-01-19T09:33:50.509Z,11.33
2023-01-19T09:36:18.267Z,11.97
2023-01-19T09:38:46.037Z,11.93
2023-01-19T09:41:20.974Z,10.87
2023-01-19T09:43:56.345Z,9.97
2023-01-19T09:46:29.777Z,10.33
2023-01-19T09:48:59.465Z,9.10
2023-01-19T09:51:29.645Z,9.23
2023-01-19T09:54:04.609Z,8.63
2023-01-19T09:56:33.308Z,7.97
2023-01-19T09:59:04.202Z,8.83
2023-01-19T10:01:46.767Z,9.00
2023-01-19T10:04:33.401Z,7.53
2023-01-19T10:07:10.388Z,7.30
2023-01-19T10:09:49.836Z,8.17
2023-01-19T10:12:31.695Z,6.60
2023-01-19T10:15:07.381Z,7.00
2023-01-19T10:17:45.438Z,6.30
2023-01-19T10:20:19.120Z,6.70
2023-01-19T10:22:50.002Z,7.07
2023-01-19T10:25:23.682Z,6.37
2023-01-19T10:27:51.585Z,6.37
2023-01-19T10:30:24.904Z,6.37
2023-01-19T10:32:53.652Z,6.60
2023-01-19T10:35:25.088Z,6.63
2023-01-19T10:37:56.122Z,6.97
2023-01-19T10:40:30.947Z,6.73
2023-01-19T10:42:59.755Z,7.20
2023-01-19T10:45:32.076Z,6.40
2023-01-19T10:48:08.290Z,6.00
2023-01-19T10:50:39.782Z,6.20
2023-01-19T10:53:18.394Z,6.60
2023-01-19T10:55:46.141Z,6.77
2023-01-19T10:58:29.694Z,6.53
2023-01-19T11:01:14.977Z,6.57
2023-01-19T11:03:42.917Z,7.00
2023-01-19T11:06:29.463Z,6.10
2023-01-19T11:09:12.423Z,6.83
2023-01-19T11:11:45.577Z,6.87
2023-01-19T11:14:15.777Z,6.63
2023-01-19T11:16:49.247Z,7.13
2023-01-19T11:19:23.565Z,6.97
2023-01-19T11:21:51.628Z,6.20
2023-01-19T11:24:20.122Z,6.27
2023-01-19T11:26:51.082Z,6.73
2023-01-19T11:29:22.273Z,6.10
2023-01-19T11:31:52.951Z,6.20
2023-01-19T11:34:28.145Z,6.17
2023-01-19T11:36:58.418Z,5.47
2023-01-19T11:39:28.747Z,6.20
2023-01-19T11:41:59.307Z,5.87
2023-01-19T11:44:32.003Z,5.20
2023-01-19T11:47:03.272Z,6.07
2023-01-19T11:49:39.874Z,7.00
2023-01-19T11:52:17.627Z,5.43
2023-01-19T11:54:55.670Z,4.90
2023-01-19T11:57:23.652Z,5.00
2023-01-19T11:59:51.362Z,5.40
2023-01-19T12:02:28.027Z,5.27
2023-01-19T12:05:00.835Z,5.77
2023-01-19T12:07:33.563Z,5.10
2023-01-19T12:10:15.426Z,5.37
2023-01-19T12:12:45.293Z,5.20
2023-01-19T12:15:24.147Z,5.20
2023-01-19T12:17:55.557Z,4.93
2023-01-19T12:20:29.022Z,4.60
2023-01-19T12:23:06.381Z,5.10
2023-01-19T12:25:53.324Z,5.37
2023-01-19T12:28:28.221Z,4.87
2023-01-19T12:30:57.238Z,5.03
2023-01-19T12:33:35.871Z,5.00
2023-01-19T12:36:06.702Z,4.93
2023-01-19T12:38:52.778Z,5.43
2023-01-19T12:41:28.291Z,5.33
2023-01-19T12:44:34.088Z,5.27
2023-01-19T12:47:20.064Z,5.60
2023-01-19T12:49:52.573Z,5.30
2023-01-19T12:52:35.135Z,5.93
2023-01-19T12:55:16.648Z,5.60
2023-01-19T12:57:50.951Z,5.20
2023-01-19T13:00:31.772Z,5.40
2023-01-19T13:03:00.621Z,5.20
2023-01-19T13:05:59.982Z,5.27
2023-01-19T13:08:34.862Z,6.03
2023-01-19T13:11:20.794Z,5.43
2023-01-19T13:14:25.471Z,5.03
2023-01-19T13:17:19.567Z,4.97
2023-01-19T13:20:23.727Z,5.50
2023-01-19T13:23:22.231Z,5.57
2023-01-19T13:25:59.882Z,13.23
2023-01-19T13:28:33.109Z,5.60
2023-01-19T13:31:03.842Z,4.60
2023-01-19T13:33:41.170Z,4.00
2023-01-19T13:36:20.503Z,4.23
2023-01-19T13:38:51.953Z,3.20
2023-01-19T13:41:24.877Z,3.87
2023-01-19T13:43:59.894Z,3.50
2023-01-19T13:46:29.346Z,2.80
2023-01-19T13:49:01.138Z,3.10
2023-01-19T13:51:28.886Z,2.40
2023-01-19T13:53:59.276Z,2.53
2023-01-19T13:56:28.853Z,2.50
2023-01-19T13:59:09.840Z,3.40
2023-01-19T14:01:39.794Z,4.93
2023-01-19T14:04:24.273Z,3.40
2023-01-19T14:06:55.599Z,3.17
2023-01-19T14:09:24.790Z,3.27
2023-01-19T14:12:14.045Z,3.60
2023-01-19T14:14:42.402Z,3.80
2023-01-19T14:17:27.573Z,3.50
2023-01-19T14:19:57.086Z,3.57
2023-01-19T14:22:39.286Z,3.40
2023-01-19T14:25:28.027Z,4.10
2023-01-19T14:28:29.356Z,3.63
2023-01-19T14:30:58.278Z,3.33
2023-01-19T14:33:43.548Z,3.50
2023-01-19T14:36:34.885Z,3.40
2023-01-19T14:39:04.357Z,3.80
2023-01-19T14:41:39.710Z,3.27
2023-01-19T14:44:11.705Z,3.70
2023-01-19T14:46:46.524Z,4.13
2023-01-19T14:49:19.918Z,5.50
2023-01-19T14:51:49.437Z,4.27
2023-01-19T14:54:20.045Z,5.10
2023-01-19T14:56:49.103Z,4.50
2023-01-19T14:59:16.834Z,5.57
2023-01-19T15:01:44.776Z,4.83
2023-01-19T15:04:12.570Z,5.23
2023-01-19T15:06:43.161Z,6.60
2023-01-19T15:09:12.897Z,4.37
2023-01-19T15:11:41.667Z,4.40
2023-01-19T15:14:14.423Z,4.60
2023-01-19T15:16:42.713Z,4.00
2023-01-19T15:19:12.618Z,4.70
2023-01-19T15:21:42.211Z,4.47
2023-01-19T15:24:11.490Z,4.20
2023-01-19T15:26:41.149Z,5.23
2023-01-19T15:29:23.082Z,4.40
2023-01-19T15:31:51.222Z,4.33
2023-01-19T15:34:18.975Z,4.93
2023-01-19T15:36:46.678Z,5.53
2023-01-19T15:39:14.487Z,5.53
2023-01-19T15:41:42.401Z,6.40
2023-01-19T15:44:11.480Z,5.80
2023-01-19T15:46:40.613Z,5.63
2023-01-19T15:49:08.362Z,5.10
2023-01-19T15:51:36.098Z,4.00
2023-01-19T15:54:03.912Z,4.10
2023-01-19T15:56:32.457Z,4.57
2023-01-19T15:59:00.416Z,3.83
2023-01-19T16:01:31.613Z,3.47
2023-01-19T16:04:02.558Z,3.30
2023-01-19T16:06:31.442Z,3.00
2023-01-19T16:09:01.787Z,3.10
2023-01-19T16:11:30.735Z,3.07
2023-01-19T16:13:58.518Z,3.37
2023-01-19T16:16:28.018Z,3.50
2023-01-19T16:18:56.189Z,3.50
2023-01-19T16:21:25.877Z,3.37
2023-01-19T16:23:54.880Z,3.83
2023-01-19T16:26:28.503Z,3.40
2023-01-19T16:29:00.708Z,3.00
2023-01-19T16:31:29.246Z,3.17
2023-01-19T16:33:57.114Z,3.30
2023-01-19T16:36:28.334Z,3.23
2023-01-19T16:38:59.699Z,3.13
2023-01-19T16:41:27.538Z,3.60
2023-01-19T16:43:56.440Z,3.90
2023-01-19T16:46:26.349Z,5.90
2023-01-19T16:48:54.562Z,3.87
2023-01-19T16:51:22.247Z,4.77
2023-01-19T16:53:51.489Z,2.70
2023-01-19T16:56:19.916Z,4.50
2023-01-19T16:58:47.786Z,4.37
2023-01-19T17:01:20.034Z,2.80
2023-01-19T17:03:49.143Z,3.20
2023-01-19T17:06:20.084Z,3.30
2023-01-19T17:08:48.064Z,3.10
2023-01-19T17:11:20.745Z,2.60
2023-01-19T17:13:48.745Z,3.00
2023-01-19T17:16:16.537Z,3.07
2023-01-19T17:18:44.265Z,3.23
2023-01-19T17:21:12.454Z,3.43
2023-01-19T17:23:44.597Z,3.63
2023-01-19T17:26:12.469Z,3.30
2023-01-19T17:28:41.648Z,3.33
2023-01-19T17:31:11.298Z,3.53
2023-01-19T17:33:39.650Z,3.53
2023-01-19T17:36:09.919Z,3.70
2023-01-19T17:38:38.074Z,3.90
2023-01-19T17:41:14.618Z,3.67
2023-01-19T17:43:44.261Z,3.47
2023-01-19T17:46:12.810Z,4.63
2023-01-19T17:48:40.744Z,5.63
2023-01-19T17:51:10.237Z,6.63
2023-01-19T17:53:38.923Z,5.30
2023-01-19T17:56:08.737Z,5.50
2023-01-19T17:58:36.543Z,6.00
2023-01-19T18:01:11.099Z,5.93
2023-01-19T18:03:39.076Z,5.93
2023-01-19T18:06:07.138Z,6.10
2023-01-19T18:08:36.267Z,7.33
2023-01-19T18:11:04.418Z,7.73
2023-01-19T18:13:32.226Z,8.03
2023-01-19T18:16:01.365Z,6.80
2023-01-19T18:18:30.733Z,5.90
2023-01-19T18:21:01.481Z,6.00
2023-01-19T18:23:29.571Z,6.50
2023-01-19T18:26:01.030Z,5.40
2023-01-19T18:28:29.807Z,5.53
2023-01-19T18:30:57.667Z,6.00
2023-01-19T18:33:25.946Z,6.53
2023-01-19T18:35:55.822Z,5.97
2023-01-19T18:38:23.500Z,5.70
2023-01-19T18:41:01.327Z,6.30
2023-01-19T18:43:29.133Z,6.13
2023-01-19T18:45:57.030Z,6.30
2023-01-19T18:48:24.861Z,6.53
2023-01-19T18:50:52.938Z,7.23
2023-01-19T18:53:22.414Z,6.80
2023-01-19T18:55:54.770Z,6.80
2023-01-19T18:58:22.882Z,6.63
2023-01-19T19:00:51.080Z,6.53
2023-01-19T19:03:28.844Z,6.17
2023-01-19T19:05:56.834Z,6.53
2023-01-19T19:08:26.038Z,6.07
2023-01-19T19:10:53.946Z,6.03
2023-01-19T19:13:21.896Z,6.20
2023-01-19T19:15:52.438Z,6.23
2023-01-19T19:18:20.601Z,6.30
2023-01-19T19:20:48.451Z,5.53
2023-01-19T19:23:16.255Z,6.17
2023-01-19T19:25:45.485Z,6.30
2023-01-19T19:28:13.298Z,6.17
2023-01-19T19:30:41.410Z,6.60
2023-01-19T19:33:09.305Z,6.67
2023-01-19T19:35:37.176Z,6.43
2023-01-19T19:38:04.883Z,6.00
2023-01-19T19:40:32.614Z,6.30
2023-01-19T19:43:01.718Z,6.63
2023-01-19T19:45:29.477Z,6.93
2023-01-19T19:47:57.504Z,6.67
2023-01-19T19:50:25.208Z,7.10
2023-01-19T19:52:53.031Z,6.37
2023-01-19T19:55:20.807Z,7.37
2023-01-19T19:57:48.592Z,6.70
2023-01-19T20:00:18.501Z,7.37
2023-01-19T20:02:46.435Z,6.57
2023-01-19T20:05:14.273Z,7.33
2023-01-19T20:07:47.040Z,8.10
2023-01-19T20:10:14.995Z,7.23
2023-01-19T20:12:42.883Z,7.17
2023-01-19T20:15:12.130Z,6.17
2023-01-19T20:17:41.205Z,6.33
2023-01-19T20:20:10.861Z,6.67
2023-01-19T20:22:38.768Z,6.40
2023-01-19T20:25:07.573Z,7.33
2023-01-19T20:27:35.449Z,7.00
2023-01-19T20:30:03.948Z,6.17
2023-01-19T20:32:31.649Z,6.93
2023-01-19T20:35:00.969Z,5.63
2023-01-19T20:37:28.646Z,5.10
2023-01-19T20:39:56.445Z,5.37
2023-01-19T20:42:24.143Z,5.70
2023-01-19T20:44:51.887Z,6.93
2023-01-19T20:47:20.225Z,5.90
2023-01-19T20:49:47.926Z,6.30
2023-01-19T20:52:17.063Z,6.87
2023-01-19T20:54:44.769Z,6.77
2023-01-19T20:57:12.509Z,6.30
2023-01-19T20:59:40.912Z,8.73
2023-01-19T21:02:12.455Z,7.73
2023-01-19T21:04:40.314Z,9.20
2023-01-19T21:07:09.002Z,9.87
2023-01-19T21:09:39.708Z,9.53
2023-01-19T21:12:09.676Z,9.80
2023-01-19T21:14:38.355Z,9.33
2023-01-19T21:17:06.119Z,10.10
2023-01-19T21:19:33.888Z,12.00
2023-01-19T21:22:01.597Z,11.83
2023-01-19T21:24:29.518Z,11.83
2023-01-19T21:26:58.709Z,10.60
2023-01-19T21:29:26.524Z,10.37
2023-01-19T21:31:54.269Z,10.73
2023-01-19T21:34:22.013Z,11.27
2023-01-19T21:36:49.717Z,11.67
2023-01-19T21:39:17.585Z,10.37
2023-01-19T21:41:45.389Z,11.17
2023-01-19T21:44:15.354Z,10.53
2023-01-19T21:46:43.422Z,11.17
2023-01-19T21:49:16.777Z,10.67
2023-01-19T21:51:45.592Z,11.20
2023-01-19T21:54:14.965Z,11.77
2023-01-19T21:56:43.575Z,13.70
2023-01-19T21:59:15.766Z,11.73
2023-01-19T22:01:45.918Z,10.67
2023-01-19T22:04:13.746Z,10.67
2023-01-19T22:06:41.499Z,11.20
2023-01-19T22:09:09.554Z,11.00
2023-01-19T22:11:37.282Z,10.53
2023-01-19T22:14:05.227Z,10.50
2023-01-19T22:16:34.768Z,10.30
2023-01-19T22:19:02.725Z,10.50
2023-01-19T22:21:32.579Z,10.57
2023-01-19T22:24:02.087Z,10.43
2023-01-19T22:26:31.211Z,11.10
2023-01-19T22:29:00.788Z,10.93
2023-01-19T22:31:30.545Z,12.20
2023-01-19T22:33:59.870Z,12.23
2023-01-19T22:36:29.307Z,12.63
2023-01-19T22:38:58.650Z,13.73
2023-01-19T22:41:28.445Z,13.07
2023-01-19T22:43:58.404Z,13.13
2023-01-19T22:46:28.555Z,11.83
2023-01-19T22:48:57.166Z,11.47
2023-01-19T22:51:27.225Z,11.30
2023-01-19T22:53:55.099Z,11.87
2023-01-19T22:56:24.555Z,10.77
2023-01-19T22:58:53.164Z,11.23
2023-01-19T23:01:22.711Z,11.27
2023-01-19T23:03:50.865Z,12.57
2023-01-19T23:06:22.676Z,10.03
2023-01-19T23:08:52.252Z,9.90
2023-01-19T23:11:22.845Z,10.30
2023-01-19T23:13:51.236Z,10.13
2023-01-19T23:16:19.693Z,10.47
2023-01-19T23:18:48.340Z,10.73
2023-01-19T23:21:18.281Z,11.20
2023-01-19T23:23:46.607Z,10.80
2023-01-19T23:26:17.665Z,11.37
2023-01-19T23:28:46.030Z,14.20
2023-01-19T23:31:16.168Z,11.33
2023-01-19T23:33:44.809Z,10.60
2023-01-19T23:36:12.998Z,11.90
2023-01-19T23:38:41.463Z,11.20
2023-01-19T23:41:09.867Z,10.83
2023-01-19T23:43:38.913Z,10.13
2023-01-19T23:46:08.009Z,9.33
2023-01-19T23:48:36.516Z,8.43
2023-01-19T23:51:07.056Z,9.43
2023-01-19T23:53:34.861Z,10.03
2023-01-19T23:56:09.732Z,10.30
2023-01-19T23:58:39.236Z,9.30
